LINCE24 LPPT-LPMA
Flight info
| Callsign | LINCE24 |
|---|---|
| Flight time | 1h 29m |
| Altitude | 41000 |
| Route | ULVOT DCT GALPA DCT RAKUN |
| Aircraft | FA50/M-SDFGHIM1RWXY/H |
Departure
| Time | 2026-05-07 09:00 |
|---|---|
| Airport | Lisbon Humberto Delgado Airport (LPPT) |
Arrival
| Time | 2026-05-07 10:29 |
|---|---|
| Airport | Cristiano Ronaldo International Airport (LPMA) |
| Time | Latitude | Longitude | Altitude | Speed | Heading |
|---|---|---|---|---|---|
| 2026-05-07 08:48 | 38.78169 | -9.13006 | 381 ft | 0 kts | 304° |
| 2026-05-07 08:54 | 38.78169 | -9.13007 | 380 ft | 0 kts | 304° |
| 2026-05-07 08:54 | 38.78170 | -9.13018 | 380 ft | 3 kts | 242° |
| 2026-05-07 08:55 | 38.78118 | -9.13045 | 380 ft | 13 kts | 200° |
| 2026-05-07 08:55 | 38.78018 | -9.13076 | 380 ft | 15 kts | 168° |
| 2026-05-07 08:55 | 38.77909 | -9.13045 | 380 ft | 15 kts | 167° |
| 2026-05-07 08:55 | 38.77803 | -9.13025 | 380 ft | 15 kts | 194° |
| 2026-05-07 08:56 | 38.77764 | -9.13120 | 380 ft | 13 kts | 259° |
| 2026-05-07 08:56 | 38.77742 | -9.13249 | 380 ft | 15 kts | 258° |
| 2026-05-07 08:56 | 38.77693 | -9.13367 | 380 ft | 16 kts | 203° |
| 2026-05-07 08:56 | 38.77582 | -9.13427 | 380 ft | 18 kts | 202° |
| 2026-05-07 08:57 | 38.77471 | -9.13514 | 380 ft | 11 kts | 220° |
| 2026-05-07 08:57 | 38.77389 | -9.13525 | 380 ft | 13 kts | 168° |
| 2026-05-07 08:57 | 38.77296 | -9.13513 | 380 ft | 11 kts | 212° |
| 2026-05-07 08:57 | 38.77275 | -9.13621 | 380 ft | 13 kts | 258° |
| 2026-05-07 08:58 | 38.77254 | -9.13752 | 380 ft | 16 kts | 258° |
| 2026-05-07 08:58 | 38.77229 | -9.13842 | 380 ft | 10 kts | 217° |
| 2026-05-07 08:58 | 38.77151 | -9.13890 | 380 ft | 13 kts | 214° |
| 2026-05-07 08:58 | 38.77127 | -9.13999 | 380 ft | 14 kts | 290° |
| 2026-05-07 08:59 | 38.77164 | -9.14097 | 381 ft | 6 kts | 329° |
| 2026-05-07 08:59 | 38.77211 | -9.14085 | 380 ft | 8 kts | 31° |
| 2026-05-07 08:59 | 38.77229 | -9.14074 | 380 ft | 0 kts | 22° |
| 2026-05-07 08:59 | 38.77321 | -9.14027 | 380 ft | 55 kts | 22° |
| 2026-05-07 09:00 | 38.77967 | -9.13682 | 400 ft | 135 kts | 20° |
| 2026-05-07 09:00 | 38.78742 | -9.13260 | 1369 ft | 117 kts | 19° |
| 2026-05-07 09:00 | 38.79527 | -9.12829 | 2094 ft | 133 kts | 21° |
| 2026-05-07 09:00 | 38.80478 | -9.12061 | 2065 ft | 202 kts | 49° |
| 2026-05-07 09:01 | 38.80788 | -9.10242 | 2806 ft | 221 kts | 101° |
| 2026-05-07 09:01 | 38.80005 | -9.08487 | 3345 ft | 257 kts | 136° |
| 2026-05-07 09:01 | 38.78280 | -9.07590 | 4247 ft | 277 kts | 180° |
| 2026-05-07 09:01 | 38.76528 | -9.08200 | 5706 ft | 270 kts | 212° |
| 2026-05-07 09:02 | 38.75019 | -9.09601 | 6925 ft | 274 kts | 215° |
| 2026-05-07 09:02 | 38.73425 | -9.10969 | 8157 ft | 279 kts | 212° |
| 2026-05-07 09:02 | 38.71811 | -9.12287 | 9417 ft | 283 kts | 212° |
| 2026-05-07 09:02 | 38.70109 | -9.13662 | 9995 ft | 311 kts | 212° |
| 2026-05-07 09:03 | 38.68124 | -9.15262 | 10093 ft | 351 kts | 212° |
| 2026-05-07 09:03 | 38.66093 | -9.16897 | 11481 ft | 346 kts | 213° |
| 2026-05-07 09:03 | 38.64042 | -9.18549 | 12427 ft | 354 kts | 213° |
| 2026-05-07 09:03 | 38.61928 | -9.20250 | 13390 ft | 359 kts | 213° |
| 2026-05-07 09:04 | 38.59835 | -9.21934 | 14298 ft | 364 kts | 214° |
| 2026-05-07 09:04 | 38.57657 | -9.23684 | 15162 ft | 369 kts | 214° |
| 2026-05-07 09:04 | 38.55484 | -9.25428 | 15992 ft | 374 kts | 214° |
| 2026-05-07 09:04 | 38.53271 | -9.27203 | 16752 ft | 380 kts | 215° |
| 2026-05-07 09:05 | 38.51026 | -9.29004 | 17552 ft | 383 kts | 215° |
| 2026-05-07 09:05 | 38.48743 | -9.30833 | 18245 ft | 389 kts | 215° |
| 2026-05-07 09:05 | 38.46448 | -9.32669 | 18925 ft | 393 kts | 216° |
| 2026-05-07 09:05 | 38.44101 | -9.34548 | 19539 ft | 398 kts | 216° |
| 2026-05-07 09:06 | 38.41748 | -9.36426 | 20163 ft | 403 kts | 216° |
| 2026-05-07 09:06 | 38.39370 | -9.38327 | 20729 ft | 408 kts | 216° |
| 2026-05-07 09:06 | 38.36924 | -9.40279 | 21285 ft | 413 kts | 217° |
| 2026-05-07 09:06 | 38.34474 | -9.42231 | 21797 ft | 418 kts | 217° |
| 2026-05-07 09:07 | 38.32037 | -9.44171 | 22287 ft | 422 kts | 217° |
| 2026-05-07 09:07 | 38.29538 | -9.46160 | 22847 ft | 424 kts | 217° |
| 2026-05-07 09:07 | 38.27008 | -9.48173 | 23241 ft | 430 kts | 217° |
| 2026-05-07 09:07 | 38.24447 | -9.50208 | 23714 ft | 434 kts | 218° |
| 2026-05-07 09:08 | 38.21889 | -9.52237 | 24283 ft | 434 kts | 218° |
| 2026-05-07 09:08 | 38.19336 | -9.54261 | 24880 ft | 433 kts | 218° |
| 2026-05-07 09:08 | 38.16778 | -9.56291 | 25252 ft | 438 kts | 218° |
| 2026-05-07 09:08 | 38.14196 | -9.58335 | 25718 ft | 439 kts | 218° |
| 2026-05-07 09:09 | 38.11592 | -9.60395 | 26288 ft | 438 kts | 219° |
| 2026-05-07 09:09 | 38.08993 | -9.62452 | 26705 ft | 440 kts | 219° |
| 2026-05-07 09:09 | 38.06404 | -9.64498 | 27079 ft | 442 kts | 219° |
| 2026-05-07 09:09 | 38.03806 | -9.66547 | 27590 ft | 441 kts | 219° |
| 2026-05-07 09:10 | 38.01194 | -9.68608 | 27897 ft | 445 kts | 219° |
| 2026-05-07 09:10 | 37.98531 | -9.70707 | 28208 ft | 448 kts | 219° |
| 2026-05-07 09:10 | 37.95891 | -9.72784 | 28773 ft | 444 kts | 219° |
| 2026-05-07 09:10 | 37.93230 | -9.74877 | 29111 ft | 446 kts | 219° |
| 2026-05-07 09:11 | 37.90532 | -9.76998 | 29484 ft | 446 kts | 219° |
| 2026-05-07 09:11 | 37.87833 | -9.79120 | 29650 ft | 451 kts | 219° |
| 2026-05-07 09:11 | 37.85189 | -9.81192 | 30039 ft | 450 kts | 219° |
| 2026-05-07 09:11 | 37.82468 | -9.83327 | 30156 ft | 455 kts | 219° |
| 2026-05-07 09:12 | 37.79779 | -9.85432 | 30548 ft | 453 kts | 219° |
| 2026-05-07 09:12 | 37.77082 | -9.87544 | 30713 ft | 456 kts | 219° |
| 2026-05-07 09:12 | 37.74385 | -9.89648 | 31429 ft | 446 kts | 219° |
| 2026-05-07 09:12 | 37.71793 | -9.91670 | 32340 ft | 435 kts | 220° |
| 2026-05-07 09:13 | 37.66531 | -9.95784 | 32622 ft | 445 kts | 219° |
| 2026-05-07 09:13 | 37.63900 | -9.97836 | 32957 ft | 443 kts | 220° |
| 2026-05-07 09:13 | 37.61636 | -10.00344 | 33006 ft | 431 kts | 236° |
| 2026-05-07 09:14 | 37.59748 | -10.03216 | 33337 ft | 428 kts | 238° |
| 2026-05-07 09:14 | 37.57883 | -10.06145 | 33470 ft | 431 kts | 238° |
| 2026-05-07 09:14 | 37.55989 | -10.09124 | 33743 ft | 430 kts | 238° |
| 2026-05-07 09:14 | 37.54137 | -10.12035 | 34011 ft | 430 kts | 239° |
| 2026-05-07 09:15 | 37.52270 | -10.14969 | 34282 ft | 429 kts | 239° |
| 2026-05-07 09:15 | 37.50413 | -10.17884 | 34528 ft | 429 kts | 239° |
| 2026-05-07 09:15 | 37.48532 | -10.20836 | 34755 ft | 428 kts | 238° |
| 2026-05-07 09:15 | 37.46672 | -10.23750 | 34979 ft | 428 kts | 238° |
| 2026-05-07 09:16 | 37.44815 | -10.26657 | 35203 ft | 427 kts | 238° |
| 2026-05-07 09:16 | 37.42958 | -10.29561 | 35523 ft | 422 kts | 238° |
| 2026-05-07 09:16 | 37.41187 | -10.32322 | 36674 ft | 399 kts | 238° |
| 2026-05-07 09:16 | 37.39452 | -10.35039 | 36677 ft | 407 kts | 238° |
| 2026-05-07 09:17 | 37.37655 | -10.37847 | 36807 ft | 411 kts | 238° |
| 2026-05-07 09:17 | 37.35871 | -10.40624 | 37161 ft | 411 kts | 238° |
| 2026-05-07 09:17 | 37.34079 | -10.43417 | 37351 ft | 413 kts | 238° |
| 2026-05-07 09:17 | 37.32277 | -10.46222 | 37653 ft | 413 kts | 238° |
| 2026-05-07 09:18 | 37.30468 | -10.49035 | 37810 ft | 416 kts | 237° |
| 2026-05-07 09:18 | 37.28626 | -10.51896 | 38017 ft | 418 kts | 237° |
| 2026-05-07 09:18 | 37.26796 | -10.54736 | 38270 ft | 418 kts | 238° |
| 2026-05-07 09:18 | 37.24967 | -10.57575 | 38382 ft | 421 kts | 238° |
| 2026-05-07 09:19 | 37.23126 | -10.60427 | 38613 ft | 420 kts | 237° |
| 2026-05-07 09:19 | 37.21285 | -10.63277 | 38686 ft | 422 kts | 237° |
| 2026-05-07 09:19 | 37.19437 | -10.66136 | 38889 ft | 421 kts | 237° |
| 2026-05-07 09:19 | 37.17592 | -10.68988 | 38960 ft | 424 kts | 237° |
| 2026-05-07 09:20 | 37.15724 | -10.71875 | 38532 ft | 431 kts | 237° |
| 2026-05-07 09:20 | 37.14186 | -10.74248 | 38151 ft | 433 kts | 237° |
| 2026-05-07 09:21 | 37.12322 | -10.77120 | 38049 ft | 429 kts | 237° |
| 2026-05-07 09:21 | 37.10451 | -10.79998 | 38469 ft | 421 kts | 237° |
| 2026-05-07 09:21 | 37.08595 | -10.82859 | 38303 ft | 422 kts | 237° |
| 2026-05-07 09:21 | 37.06771 | -10.85661 | 38718 ft | 415 kts | 237° |
| 2026-05-07 09:22 | 37.04954 | -10.88454 | 38998 ft | 412 kts | 237° |
| 2026-05-07 09:22 | 37.03140 | -10.91242 | 38933 ft | 415 kts | 237° |
| 2026-05-07 09:22 | 36.99502 | -10.96821 | 38951 ft | 417 kts | 237° |
| 2026-05-07 09:23 | 36.95820 | -11.02458 | 38947 ft | 419 kts | 237° |
| 2026-05-07 09:23 | 36.92123 | -11.08108 | 38948 ft | 420 kts | 237° |
| 2026-05-07 09:24 | 36.88432 | -11.13740 | 38944 ft | 420 kts | 237° |
| 2026-05-07 09:24 | 36.84724 | -11.19388 | 38952 ft | 420 kts | 237° |
| 2026-05-07 09:25 | 36.81046 | -11.24980 | 38963 ft | 420 kts | 237° |
| 2026-05-07 09:25 | 36.77339 | -11.30607 | 38963 ft | 418 kts | 237° |
| 2026-05-07 09:26 | 36.73654 | -11.36191 | 38967 ft | 418 kts | 237° |
| 2026-05-07 09:26 | 36.69944 | -11.41805 | 38965 ft | 417 kts | 237° |
| 2026-05-07 09:27 | 36.66262 | -11.47365 | 38963 ft | 417 kts | 237° |
| 2026-05-07 09:28 | 36.60733 | -11.55700 | 38966 ft | 416 kts | 236° |
| 2026-05-07 09:28 | 36.57067 | -11.61214 | 38964 ft | 415 kts | 237° |
| 2026-05-07 09:29 | 36.53382 | -11.66747 | 38977 ft | 415 kts | 236° |
| 2026-05-07 09:29 | 36.49701 | -11.72268 | 38983 ft | 416 kts | 236° |
| 2026-05-07 09:30 | 36.46018 | -11.77779 | 38976 ft | 415 kts | 236° |
| 2026-05-07 09:30 | 36.42314 | -11.83314 | 38977 ft | 416 kts | 236° |
| 2026-05-07 09:31 | 36.38624 | -11.88818 | 38981 ft | 415 kts | 236° |
| 2026-05-07 09:31 | 36.34933 | -11.94318 | 38981 ft | 414 kts | 236° |
| 2026-05-07 09:32 | 36.31249 | -11.99796 | 38966 ft | 413 kts | 236° |
| 2026-05-07 09:32 | 36.27578 | -12.05246 | 38966 ft | 413 kts | 235° |
| 2026-05-07 09:33 | 36.23879 | -12.10728 | 38967 ft | 413 kts | 236° |
| 2026-05-07 09:33 | 36.20217 | -12.16146 | 38966 ft | 412 kts | 235° |
| 2026-05-07 09:34 | 36.16539 | -12.21581 | 38963 ft | 411 kts | 235° |
| 2026-05-07 09:34 | 36.12864 | -12.27003 | 38963 ft | 411 kts | 235° |
| 2026-05-07 09:35 | 36.09190 | -12.32414 | 38962 ft | 410 kts | 235° |
| 2026-05-07 09:35 | 36.05524 | -12.37803 | 38961 ft | 410 kts | 236° |
| 2026-05-07 09:36 | 36.01859 | -12.43185 | 38958 ft | 409 kts | 235° |
| 2026-05-07 09:36 | 35.98181 | -12.48550 | 38957 ft | 409 kts | 234° |
| 2026-05-07 09:37 | 35.94439 | -12.53777 | 38966 ft | 409 kts | 234° |
| 2026-05-07 09:37 | 35.90642 | -12.59061 | 38972 ft | 409 kts | 234° |
| 2026-05-07 09:38 | 35.86873 | -12.64296 | 38972 ft | 409 kts | 234° |
| 2026-05-07 09:38 | 35.83087 | -12.69547 | 38983 ft | 410 kts | 233° |
| 2026-05-07 09:39 | 35.79307 | -12.74782 | 38986 ft | 410 kts | 233° |
| 2026-05-07 09:39 | 35.75543 | -12.79986 | 38989 ft | 409 kts | 233° |
| 2026-05-07 09:40 | 35.71753 | -12.85219 | 38990 ft | 408 kts | 233° |
| 2026-05-07 09:40 | 35.67960 | -12.90447 | 38987 ft | 408 kts | 233° |
| 2026-05-07 09:41 | 35.64196 | -12.95626 | 38986 ft | 408 kts | 233° |
| 2026-05-07 09:41 | 35.60412 | -13.00827 | 38990 ft | 408 kts | 233° |
| 2026-05-07 09:42 | 35.56632 | -13.06013 | 39075 ft | 409 kts | 233° |
| 2026-05-07 09:42 | 35.54751 | -13.08592 | 38958 ft | 409 kts | 233° |
| 2026-05-07 09:42 | 35.52850 | -13.11194 | 38994 ft | 408 kts | 233° |
| 2026-05-07 09:43 | 35.49057 | -13.16383 | 38985 ft | 408 kts | 233° |
| 2026-05-07 09:43 | 35.45258 | -13.21573 | 38982 ft | 407 kts | 233° |
| 2026-05-07 09:44 | 35.41470 | -13.26737 | 38982 ft | 406 kts | 233° |
| 2026-05-07 09:44 | 35.37689 | -13.31886 | 38982 ft | 406 kts | 233° |
| 2026-05-07 09:45 | 35.33907 | -13.37027 | 38981 ft | 406 kts | 233° |
| 2026-05-07 09:45 | 35.30137 | -13.42145 | 38982 ft | 406 kts | 233° |
| 2026-05-07 09:46 | 35.26356 | -13.47272 | 38980 ft | 406 kts | 233° |
| 2026-05-07 09:46 | 35.22577 | -13.52386 | 38978 ft | 406 kts | 233° |
| 2026-05-07 09:47 | 35.18767 | -13.57533 | 38980 ft | 406 kts | 233° |
| 2026-05-07 09:47 | 35.14977 | -13.62650 | 38975 ft | 406 kts | 233° |
| 2026-05-07 09:48 | 35.11171 | -13.67777 | 38993 ft | 406 kts | 232° |
| 2026-05-07 09:48 | 35.07358 | -13.72907 | 38989 ft | 407 kts | 232° |
| 2026-05-07 09:49 | 35.03564 | -13.78004 | 38986 ft | 406 kts | 232° |
| 2026-05-07 09:49 | 34.99760 | -13.83107 | 38988 ft | 406 kts | 232° |
| 2026-05-07 09:50 | 34.95948 | -13.88211 | 38987 ft | 407 kts | 232° |
| 2026-05-07 09:50 | 34.92147 | -13.93296 | 38991 ft | 406 kts | 232° |
| 2026-05-07 09:51 | 34.88353 | -13.98361 | 39003 ft | 406 kts | 232° |
| 2026-05-07 09:51 | 34.84896 | -14.02972 | 39007 ft | 406 kts | 232° |
| 2026-05-07 09:52 | 34.81175 | -14.07926 | 39007 ft | 407 kts | 232° |
| 2026-05-07 09:52 | 34.77362 | -14.12996 | 39005 ft | 407 kts | 232° |
| 2026-05-07 09:53 | 34.73525 | -14.18091 | 39004 ft | 407 kts | 232° |
| 2026-05-07 09:53 | 34.69729 | -14.23142 | 39002 ft | 406 kts | 232° |
| 2026-05-07 09:54 | 34.65883 | -14.28216 | 39001 ft | 405 kts | 232° |
| 2026-05-07 09:54 | 34.62060 | -14.33267 | 39001 ft | 405 kts | 232° |
| 2026-05-07 09:55 | 34.58255 | -14.38291 | 39002 ft | 405 kts | 232° |
| 2026-05-07 09:55 | 34.54431 | -14.43331 | 39002 ft | 405 kts | 232° |
| 2026-05-07 09:56 | 34.50609 | -14.48359 | 38999 ft | 404 kts | 232° |
| 2026-05-07 09:56 | 34.46784 | -14.53389 | 38989 ft | 405 kts | 232° |
| 2026-05-07 09:57 | 34.42975 | -14.58386 | 38997 ft | 404 kts | 232° |
| 2026-05-07 09:57 | 34.39147 | -14.63401 | 38993 ft | 405 kts | 232° |
| 2026-05-07 09:58 | 34.35492 | -14.68490 | 38956 ft | 402 kts | 239° |
| 2026-05-07 09:58 | 34.34002 | -14.71370 | 38531 ft | 398 kts | 242° |
| 2026-05-07 09:58 | 34.32573 | -14.74220 | 38086 ft | 394 kts | 242° |
| 2026-05-07 09:58 | 34.31167 | -14.77036 | 37639 ft | 391 kts | 242° |
| 2026-05-07 09:59 | 34.29780 | -14.79834 | 37189 ft | 389 kts | 242° |
| 2026-05-07 09:59 | 34.28406 | -14.82639 | 36732 ft | 387 kts | 242° |
| 2026-05-07 09:59 | 34.27048 | -14.85420 | 36284 ft | 385 kts | 242° |
| 2026-05-07 09:59 | 34.25689 | -14.88222 | 35830 ft | 383 kts | 242° |
| 2026-05-07 10:00 | 34.24355 | -14.90975 | 35384 ft | 382 kts | 242° |
| 2026-05-07 10:00 | 34.23004 | -14.93764 | 34928 ft | 381 kts | 242° |
| 2026-05-07 10:00 | 34.21677 | -14.96529 | 34474 ft | 380 kts | 242° |
| 2026-05-07 10:00 | 34.20359 | -14.99279 | 34031 ft | 379 kts | 242° |
| 2026-05-07 10:01 | 34.19032 | -15.02042 | 33609 ft | 379 kts | 242° |
| 2026-05-07 10:01 | 34.17723 | -15.04787 | 33196 ft | 378 kts | 242° |
| 2026-05-07 10:01 | 34.16408 | -15.07552 | 32782 ft | 378 kts | 242° |
| 2026-05-07 10:01 | 34.15043 | -15.10246 | 32398 ft | 378 kts | 232° |
| 2026-05-07 10:02 | 34.13206 | -15.12390 | 32293 ft | 360 kts | 227° |
| 2026-05-07 10:02 | 34.11401 | -15.14448 | 31251 ft | 362 kts | 228° |
| 2026-05-07 10:02 | 34.09583 | -15.16562 | 30179 ft | 363 kts | 227° |
| 2026-05-07 10:02 | 34.07767 | -15.18685 | 29484 ft | 359 kts | 228° |
| 2026-05-07 10:03 | 34.05998 | -15.20755 | 28960 ft | 355 kts | 228° |
| 2026-05-07 10:03 | 34.04242 | -15.22809 | 28439 ft | 352 kts | 227° |
| 2026-05-07 10:03 | 34.02484 | -15.24866 | 27908 ft | 349 kts | 227° |
| 2026-05-07 10:03 | 34.00761 | -15.26882 | 27384 ft | 346 kts | 227° |
| 2026-05-07 10:04 | 33.99017 | -15.28919 | 26850 ft | 344 kts | 227° |
| 2026-05-07 10:04 | 33.97337 | -15.30881 | 26392 ft | 338 kts | 227° |
| 2026-05-07 10:04 | 33.95661 | -15.32836 | 26122 ft | 332 kts | 227° |
| 2026-05-07 10:04 | 33.94001 | -15.34773 | 25847 ft | 327 kts | 227° |
| 2026-05-07 10:05 | 33.92383 | -15.36661 | 25577 ft | 322 kts | 227° |
| 2026-05-07 10:05 | 33.90788 | -15.38520 | 25300 ft | 319 kts | 227° |
| 2026-05-07 10:05 | 33.89184 | -15.40388 | 24803 ft | 321 kts | 227° |
| 2026-05-07 10:05 | 33.87590 | -15.42245 | 24181 ft | 325 kts | 227° |
| 2026-05-07 10:06 | 33.85956 | -15.44147 | 23560 ft | 329 kts | 227° |
| 2026-05-07 10:06 | 33.84288 | -15.46086 | 22940 ft | 332 kts | 227° |
| 2026-05-07 10:06 | 33.82613 | -15.48031 | 22326 ft | 333 kts | 226° |
| 2026-05-07 10:06 | 33.80961 | -15.49949 | 21700 ft | 329 kts | 226° |
| 2026-05-07 10:07 | 33.79337 | -15.51834 | 21086 ft | 323 kts | 226° |
| 2026-05-07 10:07 | 33.77733 | -15.53694 | 20474 ft | 318 kts | 226° |
| 2026-05-07 10:07 | 33.76173 | -15.55504 | 19867 ft | 314 kts | 226° |
| 2026-05-07 10:07 | 33.74606 | -15.57320 | 19254 ft | 310 kts | 226° |
| 2026-05-07 10:08 | 33.73058 | -15.59113 | 18640 ft | 307 kts | 226° |
| 2026-05-07 10:08 | 33.71545 | -15.60865 | 18032 ft | 304 kts | 226° |
| 2026-05-07 10:08 | 33.70047 | -15.62597 | 17671 ft | 297 kts | 226° |
| 2026-05-07 10:08 | 33.68504 | -15.64383 | 17321 ft | 319 kts | 226° |
| 2026-05-07 10:09 | 33.66858 | -15.66286 | 16986 ft | 335 kts | 225° |
| 2026-05-07 10:09 | 33.65149 | -15.68259 | 16647 ft | 346 kts | 225° |
| 2026-05-07 10:09 | 33.63407 | -15.70270 | 16302 ft | 352 kts | 225° |
| 2026-05-07 10:09 | 33.61635 | -15.72314 | 15944 ft | 351 kts | 225° |
| 2026-05-07 10:10 | 33.59869 | -15.74349 | 15580 ft | 345 kts | 225° |
| 2026-05-07 10:10 | 33.58152 | -15.76329 | 15216 ft | 340 kts | 225° |
| 2026-05-07 10:10 | 33.56456 | -15.78282 | 14854 ft | 337 kts | 225° |
| 2026-05-07 10:10 | 33.54793 | -15.80196 | 14494 ft | 333 kts | 225° |
| 2026-05-07 10:11 | 33.53127 | -15.82113 | 14130 ft | 331 kts | 225° |
| 2026-05-07 10:11 | 33.51469 | -15.84018 | 13765 ft | 329 kts | 225° |
| 2026-05-07 10:11 | 33.49815 | -15.85919 | 13398 ft | 327 kts | 226° |
| 2026-05-07 10:11 | 33.48172 | -15.87807 | 13032 ft | 326 kts | 225° |
| 2026-05-07 10:12 | 33.46540 | -15.89679 | 12669 ft | 326 kts | 225° |
| 2026-05-07 10:12 | 33.44890 | -15.91573 | 12300 ft | 325 kts | 225° |
| 2026-05-07 10:12 | 33.43257 | -15.93446 | 11932 ft | 325 kts | 226° |
| 2026-05-07 10:12 | 33.41626 | -15.95314 | 11564 ft | 325 kts | 226° |
| 2026-05-07 10:13 | 33.40002 | -15.97175 | 11198 ft | 324 kts | 226° |
| 2026-05-07 10:13 | 33.38406 | -15.99001 | 10821 ft | 310 kts | 226° |
| 2026-05-07 10:13 | 33.36870 | -16.00757 | 10439 ft | 298 kts | 226° |
| 2026-05-07 10:13 | 33.35406 | -16.02432 | 10061 ft | 288 kts | 226° |
| 2026-05-07 10:14 | 33.33979 | -16.04063 | 9685 ft | 280 kts | 226° |
| 2026-05-07 10:14 | 33.32582 | -16.05660 | 9310 ft | 276 kts | 226° |
| 2026-05-07 10:14 | 33.31202 | -16.07236 | 9181 ft | 270 kts | 226° |
| 2026-05-07 10:14 | 33.29856 | -16.08771 | 9066 ft | 266 kts | 226° |
| 2026-05-07 10:15 | 33.28527 | -16.10289 | 8896 ft | 266 kts | 226° |
| 2026-05-07 10:15 | 33.27168 | -16.11839 | 8720 ft | 270 kts | 226° |
| 2026-05-07 10:15 | 33.25809 | -16.13389 | 8548 ft | 274 kts | 226° |
| 2026-05-07 10:15 | 33.24426 | -16.14965 | 8374 ft | 277 kts | 226° |
| 2026-05-07 10:16 | 33.23014 | -16.16573 | 8183 ft | 279 kts | 226° |
| 2026-05-07 10:16 | 33.21609 | -16.18172 | 8018 ft | 281 kts | 226° |
| 2026-05-07 10:16 | 33.20179 | -16.19799 | 7846 ft | 283 kts | 226° |
| 2026-05-07 10:16 | 33.18751 | -16.21423 | 7658 ft | 284 kts | 226° |
| 2026-05-07 10:17 | 33.17315 | -16.23055 | 7490 ft | 285 kts | 226° |
| 2026-05-07 10:17 | 33.15867 | -16.24701 | 7311 ft | 286 kts | 225° |
| 2026-05-07 10:17 | 33.14418 | -16.26346 | 7124 ft | 286 kts | 226° |
| 2026-05-07 10:17 | 33.12983 | -16.27974 | 6952 ft | 287 kts | 226° |
| 2026-05-07 10:18 | 33.11524 | -16.29631 | 6777 ft | 287 kts | 225° |
| 2026-05-07 10:18 | 33.10068 | -16.31281 | 6602 ft | 288 kts | 225° |
| 2026-05-07 10:18 | 33.08623 | -16.32919 | 6430 ft | 287 kts | 226° |
| 2026-05-07 10:18 | 33.07184 | -16.34549 | 6309 ft | 279 kts | 226° |
| 2026-05-07 10:19 | 33.05805 | -16.36109 | 6295 ft | 267 kts | 225° |
| 2026-05-07 10:19 | 33.04482 | -16.37606 | 6282 ft | 258 kts | 226° |
| 2026-05-07 10:19 | 33.03191 | -16.39070 | 6270 ft | 250 kts | 226° |
| 2026-05-07 10:19 | 33.01952 | -16.40473 | 6260 ft | 244 kts | 226° |
| 2026-05-07 10:20 | 33.00730 | -16.41856 | 6215 ft | 240 kts | 226° |
| 2026-05-07 10:20 | 32.99491 | -16.43257 | 5983 ft | 248 kts | 225° |
| 2026-05-07 10:20 | 32.98226 | -16.44685 | 5728 ft | 257 kts | 225° |
| 2026-05-07 10:20 | 32.96914 | -16.46168 | 5463 ft | 264 kts | 225° |
| 2026-05-07 10:21 | 32.95562 | -16.47693 | 5190 ft | 270 kts | 225° |
| 2026-05-07 10:21 | 32.94183 | -16.49248 | 4923 ft | 273 kts | 225° |
| 2026-05-07 10:21 | 32.92806 | -16.50801 | 4658 ft | 273 kts | 225° |
| 2026-05-07 10:21 | 32.91428 | -16.52352 | 4389 ft | 268 kts | 225° |
| 2026-05-07 10:22 | 32.90080 | -16.53871 | 4099 ft | 261 kts | 225° |
| 2026-05-07 10:22 | 32.88777 | -16.55338 | 3874 ft | 258 kts | 225° |
| 2026-05-07 10:22 | 32.87449 | -16.56834 | 3756 ft | 266 kts | 225° |
| 2026-05-07 10:22 | 32.86076 | -16.58380 | 3642 ft | 274 kts | 225° |
| 2026-05-07 10:23 | 32.84626 | -16.59798 | 3479 ft | 264 kts | 217° |
| 2026-05-07 10:23 | 32.83143 | -16.61036 | 3293 ft | 259 kts | 216° |
| 2026-05-07 10:23 | 32.81676 | -16.62263 | 3102 ft | 252 kts | 217° |
| 2026-05-07 10:23 | 32.80261 | -16.63450 | 2923 ft | 247 kts | 217° |
| 2026-05-07 10:24 | 32.78859 | -16.64626 | 2745 ft | 244 kts | 217° |
| 2026-05-07 10:24 | 32.77488 | -16.65776 | 2570 ft | 241 kts | 217° |
| 2026-05-07 10:24 | 32.76118 | -16.66925 | 2397 ft | 240 kts | 216° |
| 2026-05-07 10:24 | 32.74743 | -16.68076 | 2220 ft | 239 kts | 216° |
| 2026-05-07 10:25 | 32.73394 | -16.69205 | 2039 ft | 233 kts | 216° |
| 2026-05-07 10:25 | 32.72093 | -16.70295 | 1972 ft | 223 kts | 216° |
| 2026-05-07 10:25 | 32.70852 | -16.71316 | 1976 ft | 211 kts | 214° |
| 2026-05-07 10:25 | 32.69643 | -16.72265 | 1876 ft | 208 kts | 214° |
| 2026-05-07 10:26 | 32.68420 | -16.73255 | 1731 ft | 212 kts | 216° |
| 2026-05-07 10:26 | 32.67230 | -16.74260 | 1796 ft | 207 kts | 217° |
| 2026-05-07 10:26 | 32.66095 | -16.75273 | 1762 ft | 199 kts | 219° |
| 2026-05-07 10:26 | 32.65087 | -16.76201 | 1731 ft | 166 kts | 219° |
| 2026-05-07 10:27 | 32.64286 | -16.76964 | 1950 ft | 136 kts | 225° |
| 2026-05-07 10:27 | 32.64014 | -16.78005 | 1777 ft | 136 kts | 283° |
| 2026-05-07 10:27 | 32.64467 | -16.78971 | 1672 ft | 135 kts | 311° |
| 2026-05-07 10:27 | 32.65167 | -16.79673 | 1490 ft | 125 kts | 327° |
| 2026-05-07 10:28 | 32.65946 | -16.80091 | 1223 ft | 123 kts | 343° |
| 2026-05-07 10:28 | 32.66767 | -16.80235 | 949 ft | 123 kts | 0° |
| 2026-05-07 10:28 | 32.67594 | -16.80016 | 751 ft | 121 kts | 27° |
| 2026-05-07 10:28 | 32.68164 | -16.79333 | 492 ft | 113 kts | 45° |
| 2026-05-07 10:29 | 32.68732 | -16.78691 | 298 ft | 118 kts | 43° |
| 2026-05-07 10:29 | 32.69306 | -16.78010 | 189 ft | 107 kts | 43° |
| 2026-05-07 10:29 | 32.69614 | -16.77650 | 205 ft | 27 kts | 46° |
| 2026-05-07 10:30 | 32.69837 | -16.77389 | 204 ft | 27 kts | 43° |
| 2026-05-07 10:30 | 32.69956 | -16.77234 | 192 ft | 15 kts | 77° |
| 2026-05-07 10:30 | 32.69896 | -16.77177 | 190 ft | 16 kts | 183° |
| 2026-05-07 10:30 | 32.69798 | -16.77226 | 196 ft | 15 kts | 226° |
| 2026-05-07 10:31 | 32.69723 | -16.77319 | 201 ft | 15 kts | 226° |
| 2026-05-07 10:31 | 32.69644 | -16.77416 | 203 ft | 17 kts | 226° |
| 2026-05-07 10:31 | 32.69549 | -16.77533 | 202 ft | 21 kts | 226° |
| 2026-05-07 10:31 | 32.69431 | -16.77679 | 198 ft | 26 kts | 227° |
| 2026-05-07 10:32 | 32.69331 | -16.77802 | 192 ft | 18 kts | 227° |
| 2026-05-07 10:32 | 32.69276 | -16.77862 | 188 ft | 9 kts | 181° |
| 2026-05-07 10:32 | 32.69237 | -16.77826 | 186 ft | 3 kts | 137° |
| 2026-05-07 10:32 | 32.69232 | -16.77820 | 186 ft | 0 kts | 137° |